Time;durP1;ratioP1;P1;durP2;ratioP2;P2;SDS_P1;SDS_P2;PMS_P1;PMS_P2;Temp;Humidity;BMP_temperature;BMP_pressure;BME280_temperature;BME280_humidity;BME280_pressure;Samples;Min_cycle;Max_cycle;Signal;HPM_P1;HPM_P2
2020/12/15 00:00:05;;;;;;;4.75;4.18;;;10.30;99.90;;;;;;5078941;28;20244;-78
2020/12/15 00:02:31;;;;;;;6.78;4.70;;;10.30;99.90;;;;;;5078096;28;20665;-79
2020/12/15 00:04:58;;;;;;;5.38;4.80;;;10.30;99.90;;;;;;5077403;28;20316;-79
2020/12/15 00:07:25;;;;;;;6.25;4.22;;;10.30;99.90;;;;;;5078281;28;20194;-78
2020/12/15 00:09:51;;;;;;;5.05;4.10;;;10.20;99.90;;;;;;5079279;28;21604;-77
2020/12/15 00:12:17;;;;;;;6.88;4.82;;;10.20;99.90;;;;;;5077804;28;20657;-77
2020/12/15 00:14:43;;;;;;;6.82;4.68;;;10.20;99.90;;;;;;5077575;28;20203;-78
2020/12/15 00:17:10;;;;;;;5.90;4.82;;;10.20;99.90;;;;;;5078050;28;20203;-77
2020/12/15 00:19:36;;;;;;;5.85;4.43;;;10.20;99.90;;;;;;5079105;28;20222;-78
2020/12/15 00:22:06;;;;;;;5.47;4.55;;;10.20;99.90;;;;;;5078539;28;20198;-78
2020/12/15 00:24:32;;;;;;;6.53;5.18;;;10.20;99.90;;;;;;5082621;28;20212;-77
2020/12/15 00:26:59;;;;;;;6.43;4.25;;;10.20;99.90;;;;;;5107217;28;20212;-78
2020/12/15 00:29:26;;;;;;;8.82;4.45;;;10.20;99.90;;;;;;5109846;28;20205;-78
2020/12/15 00:31:52;;;;;;;6.45;4.68;;;10.20;99.90;;;;;;5108744;28;20239;-77
2020/12/15 00:34:18;;;;;;;7.05;4.65;;;10.20;99.90;;;;;;5097828;28;20205;-77
2020/12/15 00:36:45;;;;;;;5.60;4.45;;;10.20;99.90;;;;;;5112666;28;20202;-78
2020/12/15 00:39:12;;;;;;;7.07;4.47;;;10.20;99.90;;;;;;5114781;28;20212;-78
2020/12/15 00:41:39;;;;;;;7.90;4.75;;;10.20;99.90;;;;;;5117040;28;20219;-77
2020/12/15 00:44:05;;;;;;;5.68;5.03;;;10.30;99.90;;;;;;5116852;28;20209;-77
2020/12/15 00:46:32;;;;;;;6.05;4.95;;;10.20;99.90;;;;;;5110252;28;20198;-78
2020/12/15 00:48:58;;;;;;;6.15;4.93;;;10.30;99.90;;;;;;5109467;28;20292;-77
2020/12/15 00:51:24;;;;;;;5.15;4.40;;;10.30;99.90;;;;;;5115826;28;20203;-76
2020/12/15 00:53:51;;;;;;;9.13;5.68;;;10.30;99.90;;;;;;5116985;28;20198;-76
2020/12/15 00:56:18;;;;;;;8.02;5.25;;;10.30;99.90;;;;;;5116710;28;20197;-76
2020/12/15 00:58:45;;;;;;;5.90;4.60;;;10.20;99.90;;;;;;5116417;28;20688;-77
2020/12/15 01:01:12;;;;;;;8.10;4.63;;;10.30;99.90;;;;;;5116286;28;20220;-77
2020/12/15 01:03:38;;;;;;;7.18;4.95;;;10.30;99.90;;;;;;5116446;28;20719;-77
2020/12/15 01:06:04;;;;;;;6.57;4.72;;;10.20;99.90;;;;;;5116707;28;20197;-77
2020/12/15 01:08:31;;;;;;;6.47;5.40;;;10.20;99.90;;;;;;5115969;28;20204;-77
2020/12/15 01:10:57;;;;;;;6.88;5.35;;;10.30;99.90;;;;;;5116845;28;20201;-76
2020/12/15 01:13:24;;;;;;;5.45;4.60;;;10.30;99.90;;;;;;5116603;28;20198;-76
2020/12/15 01:15:51;;;;;;;5.45;4.22;;;10.30;99.90;;;;;;5116292;28;20202;-77
2020/12/15 01:18:17;;;;;;;8.43;4.70;;;10.30;99.90;;;;;;5116119;28;20198;-77
2020/12/15 01:20:43;;;;;;;7.70;4.65;;;10.30;99.90;;;;;;5115955;28;20702;-76
2020/12/15 01:23:10;;;;;;;6.65;5.40;;;10.40;99.90;;;;;;5115779;28;20193;-78
2020/12/15 01:25:36;;;;;;;5.68;4.95;;;10.30;99.90;;;;;;5115875;28;20212;-78
2020/12/15 01:28:02;;;;;;;6.55;4.47;;;10.30;99.90;;;;;;5116295;28;20208;-77
2020/12/15 01:30:29;;;;;;;7.18;4.70;;;10.30;99.90;;;;;;5115805;28;20299;-77
2020/12/15 01:32:56;;;;;;;5.00;4.50;;;10.30;99.90;;;;;;5115897;28;20684;-75
2020/12/15 01:35:22;;;;;;;7.32;4.90;;;10.20;99.90;;;;;;5116489;28;20207;-76
2020/12/15 01:37:49;;;;;;;7.38;4.68;;;10.30;99.90;;;;;;5101445;28;20220;-76
2020/12/15 01:40:15;;;;;;;10.48;5.10;;;10.20;99.90;;;;;;5115932;28;20226;-76
2020/12/15 01:42:41;;;;;;;6.75;4.72;;;10.30;99.90;;;;;;5115377;28;20544;-77
2020/12/15 01:45:08;;;;;;;6.03;4.68;;;10.30;99.90;;;;;;5115421;28;20197;-76
2020/12/15 01:47:35;;;;;;;6.60;4.65;;;10.20;99.90;;;;;;5115176;28;20296;-77
2020/12/15 01:50:02;;;;;;;7.03;4.65;;;10.30;99.90;;;;;;5115692;28;20203;-76
2020/12/15 01:52:29;;;;;;;6.75;4.90;;;10.30;99.90;;;;;;5115726;28;20207;-77
2020/12/15 01:54:56;;;;;;;6.30;4.75;;;10.20;99.90;;;;;;5115612;28;20201;-75
2020/12/15 01:57:23;;;;;;;6.15;4.68;;;10.30;99.90;;;;;;5115534;28;20204;-75
2020/12/15 01:59:49;;;;;;;5.75;4.78;;;10.30;99.90;;;;;;5115207;28;20224;-74
2020/12/15 02:02:19;;;;;;;5.55;4.75;;;10.30;99.90;;;;;;5115265;28;20205;-75
2020/12/15 02:04:46;;;;;;;6.03;4.55;;;10.30;99.90;;;;;;5112556;28;20286;-75
2020/12/15 02:07:13;;;;;;;6.80;4.88;;;10.30;99.90;;;;;;5104404;28;20197;-75
2020/12/15 02:09:40;;;;;;;8.32;5.00;;;10.40;99.90;;;;;;5114967;28;20637;-76
2020/12/15 02:12:06;;;;;;;6.15;4.90;;;10.30;99.90;;;;;;5114942;28;20200;-75
2020/12/15 02:14:33;;;;;;;7.00;5.20;;;10.30;99.90;;;;;;5115064;28;20208;-75
2020/12/15 02:17:00;;;;;;;9.25;4.85;;;10.30;99.90;;;;;;5115005;28;20199;-76
2020/12/15 02:19:27;;;;;;;6.40;4.10;;;10.30;99.90;;;;;;5114854;28;20225;-76
2020/12/15 02:21:54;;;;;;;7.13;5.18;;;10.30;99.90;;;;;;5115265;28;20206;-75
2020/12/15 02:24:21;;;;;;;7.20;5.50;;;10.30;99.90;;;;;;5114678;28;20193;-76
2020/12/15 02:26:48;;;;;;;7.07;4.90;;;10.30;99.90;;;;;;5114640;28;20222;-75
2020/12/15 02:29:15;;;;;;;6.80;4.65;;;10.30;99.90;;;;;;5115074;28;20202;-75
2020/12/15 02:31:41;;;;;;;6.93;5.60;;;10.30;99.90;;;;;;5114330;28;20662;-75
2020/12/15 02:34:08;;;;;;;6.55;4.70;;;10.30;99.90;;;;;;5114951;28;20256;-75
2020/12/15 02:36:34;;;;;;;7.47;5.28;;;10.30;99.90;;;;;;5114482;28;20653;-75
2020/12/15 02:39:11;;;;;;;7.90;5.18;;;10.20;99.90;;;;;;5114385;28;20646;-75
2020/12/15 02:41:38;;;;;;;8.63;5.50;;;10.30;99.90;;;;;;5114878;28;20193;-75
2020/12/15 02:44:06;;;;;;;6.43;4.55;;;10.30;99.90;;;;;;5114156;28;20667;-75
2020/12/15 02:46:33;;;;;;;6.47;5.55;;;10.30;99.90;;;;;;5115024;28;20201;-75
2020/12/15 02:49:00;;;;;;;6.40;4.78;;;10.30;99.90;;;;;;5114626;28;20205;-75
2020/12/15 02:51:27;;;;;;;6.60;4.55;;;10.20;99.90;;;;;;5114379;28;20296;-75
2020/12/15 02:53:54;;;;;;;6.25;4.95;;;10.40;99.90;;;;;;5113959;28;20208;-76
2020/12/15 02:56:22;;;;;;;6.03;4.97;;;10.30;99.90;;;;;;5114419;28;20193;-75
2020/12/15 02:58:49;;;;;;;5.82;4.85;;;10.30;99.90;;;;;;5114248;28;20225;-75
2020/12/15 03:01:16;;;;;;;6.80;5.38;;;10.30;99.90;;;;;;5098942;28;20657;-75
2020/12/15 03:03:43;;;;;;;7.35;5.45;;;10.30;99.90;;;;;;5114299;28;20201;-76
2020/12/15 03:06:10;;;;;;;6.82;5.22;;;10.30;99.90;;;;;;5113811;28;20197;-76
2020/12/15 03:08:36;;;;;;;8.10;5.28;;;10.20;99.90;;;;;;5113969;28;20415;-75
2020/12/15 03:11:04;;;;;;;7.28;4.95;;;10.30;99.90;;;;;;5114297;28;20288;-75
2020/12/15 03:13:31;;;;;;;9.02;5.38;;;10.30;99.90;;;;;;5113959;28;20194;-75
2020/12/15 03:15:57;;;;;;;5.72;5.10;;;10.40;99.90;;;;;;5114006;28;20207;-75
2020/12/15 03:18:24;;;;;;;7.45;5.75;;;10.40;99.90;;;;;;5113864;28;20552;-75
2020/12/15 03:20:52;;;;;;;7.63;5.88;;;10.40;99.90;;;;;;5113535;28;20229;-74
2020/12/15 03:23:19;;;;;;;6.68;5.55;;;10.40;99.90;;;;;;5113430;28;20625;-75
2020/12/15 03:25:46;;;;;;;7.05;4.93;;;10.40;99.90;;;;;;5091557;28;20212;-75
2020/12/15 03:28:12;;;;;;;7.93;5.32;;;10.30;99.90;;;;;;5093203;28;20198;-76
2020/12/15 03:30:40;;;;;;;6.43;5.30;;;10.30;99.90;;;;;;5091401;28;20202;-76
2020/12/15 03:33:06;;;;;;;7.18;5.40;;;10.40;99.90;;;;;;5093240;28;20204;-75
2020/12/15 03:35:32;;;;;;;6.80;5.50;;;10.30;99.90;;;;;;5093197;28;20213;-76
2020/12/15 03:37:59;;;;;;;9.45;5.88;;;10.30;99.90;;;;;;5093314;28;20686;-75
2020/12/15 03:40:26;;;;;;;8.95;6.00;;;10.30;99.90;;;;;;5093324;28;20237;-75
2020/12/15 03:42:52;;;;;;;9.13;5.60;;;10.30;99.90;;;;;;5093304;28;20202;-75
2020/12/15 03:45:19;;;;;;;7.65;5.70;;;10.30;99.90;;;;;;5093606;28;20289;-75
2020/12/15 03:47:46;;;;;;;7.53;5.90;;;10.40;99.90;;;;;;5093221;28;20204;-77
2020/12/15 03:50:12;;;;;;;7.00;6.20;;;10.30;99.90;;;;;;5081477;28;20213;-76
2020/12/15 03:52:39;;;;;;;9.73;5.82;;;10.30;99.90;;;;;;5090646;28;20200;-76
2020/12/15 03:55:06;;;;;;;9.10;6.35;;;10.30;99.90;;;;;;5092948;28;20190;-75
2020/12/15 03:57:33;;;;;;;8.57;6.30;;;10.20;99.90;;;;;;5092941;28;20206;-75
2020/12/15 03:59:59;;;;;;;6.93;5.78;;;10.40;99.90;;;;;;5092691;28;20218;-75
2020/12/15 04:02:26;;;;;;;6.57;5.90;;;10.30;99.90;;;;;;5092632;28;20202;-75
2020/12/15 04:04:53;;;;;;;6.50;5.85;;;10.30;99.90;;;;;;5092665;28;20560;-74
2020/12/15 04:07:19;;;;;;;6.72;5.55;;;10.20;99.90;;;;;;5093136;28;20558;-75
2020/12/15 04:09:46;;;;;;;10.32;5.85;;;10.20;99.90;;;;;;5092847;28;20208;-76
2020/12/15 04:12:12;;;;;;;10.18;6.85;;;10.20;99.90;;;;;;5092512;28;20206;-75
2020/12/15 04:14:40;;;;;;;8.05;6.22;;;10.20;99.90;;;;;;5092116;28;20281;-75
2020/12/15 04:17:08;;;;;;;7.80;5.78;;;10.30;99.90;;;;;;5092833;28;20280;-75
2020/12/15 04:19:35;;;;;;;7.25;6.50;;;10.20;99.90;;;;;;5092664;28;20244;-75
2020/12/15 04:22:02;;;;;;;8.25;6.30;;;10.20;99.90;;;;;;5092955;28;20195;-75
2020/12/15 04:24:28;;;;;;;7.70;6.10;;;10.20;99.90;;;;;;5092419;28;20198;-76
2020/12/15 04:26:55;;;;;;;8.13;6.63;;;10.20;99.90;;;;;;5092655;28;20290;-75
2020/12/15 04:29:21;;;;;;;7.80;5.93;;;10.30;99.90;;;;;;5092351;28;20205;-75
2020/12/15 04:31:47;;;;;;;8.10;5.90;;;10.20;99.90;;;;;;5092636;28;20205;-76
2020/12/15 04:34:14;;;;;;;6.68;5.65;;;10.20;99.90;;;;;;5092832;28;20198;-75
2020/12/15 04:36:40;;;;;;;8.90;6.05;;;10.20;99.90;;;;;;5092819;28;20195;-76
2020/12/15 04:39:07;;;;;;;8.85;5.97;;;10.20;99.90;;;;;;5092701;28;20275;-75
2020/12/15 04:41:34;;;;;;;8.07;5.80;;;10.20;99.90;;;;;;5092317;28;20195;-75
2020/12/15 04:44:00;;;;;;;8.07;6.72;;;10.20;99.90;;;;;;5092245;28;20247;-76
2020/12/15 04:46:28;;;;;;;6.60;5.32;;;10.30;99.90;;;;;;5092765;28;20231;-75
2020/12/15 04:49:04;;;;;;;7.32;5.93;;;10.30;99.90;;;;;;5092119;28;20607;-76
2020/12/15 04:51:48;;;;;;;7.32;5.93;;;10.30;99.90;;;;;;5092707;28;20197;-75
2020/12/15 04:54:17;;;;;;;9.60;5.78;;;10.30;99.90;;;;;;5092639;28;20198;-75
2020/12/15 04:56:44;;;;;;;8.55;6.88;;;10.30;99.90;;;;;;5092737;28;20210;-75
2020/12/15 04:59:13;;;;;;;6.63;5.72;;;10.30;99.90;;;;;;5091719;28;20770;-75
2020/12/15 05:01:40;;;;;;;8.40;6.00;;;10.30;99.90;;;;;;5092590;28;20204;-75
2020/12/15 05:04:09;;;;;;;7.47;5.72;;;10.30;99.90;;;;;;5092090;28;20302;-75
2020/12/15 05:06:38;;;;;;;7.57;6.30;;;10.30;99.90;;;;;;5092234;28;20279;-75
2020/12/15 05:09:05;;;;;;;8.25;6.80;;;10.30;99.90;;;;;;5092194;28;20289;-75
2020/12/15 05:11:32;;;;;;;9.77;6.00;;;10.30;99.90;;;;;;5092041;28;20285;-75
2020/12/15 05:13:59;;;;;;;7.63;5.95;;;10.30;99.90;;;;;;5092137;28;20198;-75
2020/12/15 05:16:37;;;;;;;8.65;6.43;;;10.30;99.90;;;;;;5092020;28;20589;-75
2020/12/15 05:19:04;;;;;;;10.05;6.28;;;10.30;99.90;;;;;;5092099;28;20666;-75
2020/12/15 05:21:30;;;;;;;7.57;5.85;;;10.30;99.90;;;;;;5091918;28;20645;-74
2020/12/15 05:23:56;;;;;;;6.97;6.28;;;10.30;99.90;;;;;;5092279;28;20683;-75
2020/12/15 05:26:24;;;;;;;7.97;6.47;;;10.20;99.90;;;;;;5095261;28;20194;-75
2020/12/15 05:29:05;;;;;;;8.40;6.55;;;10.20;99.90;;;;;;5095646;28;20656;-75
2020/12/15 05:31:32;;;;;;;6.35;5.40;;;10.20;99.90;;;;;;5095623;28;20198;-74
2020/12/15 05:33:59;;;;;;;6.57;5.60;;;10.20;99.90;;;;;;5095306;28;20210;-76
2020/12/15 05:36:26;;;;;;;9.70;6.40;;;10.20;99.90;;;;;;5095811;28;20296;-75
2020/12/15 05:39:06;;;;;;;7.82;5.97;;;10.20;99.90;;;;;;5095278;28;20230;-74
2020/12/15 05:41:34;;;;;;;8.70;6.10;;;10.20;99.90;;;;;;5095279;28;20194;-74
2020/12/15 05:44:01;;;;;;;7.95;6.25;;;10.10;99.90;;;;;;5095115;28;20216;-76
2020/12/15 05:46:30;;;;;;;7.35;6.03;;;10.10;99.90;;;;;;5095254;28;20611;-75
2020/12/15 05:49:04;;;;;;;7.55;6.07;;;10.10;99.90;;;;;;5095363;28;20194;-75
2020/12/15 05:51:43;;;;;;;7.32;5.50;;;10.20;99.90;;;;;;5095222;28;20194;-75
2020/12/15 05:54:12;;;;;;;6.18;5.05;;;10.20;99.90;;;;;;5094872;28;20285;-75
2020/12/15 05:56:40;;;;;;;8.73;6.07;;;10.20;99.90;;;;;;5095246;28;20365;-74
2020/12/15 05:59:20;;;;;;;8.50;5.88;;;10.20;99.90;;;;;;5095020;28;20232;-75
2020/12/15 06:01:49;;;;;;;6.75;4.95;;;10.20;99.90;;;;;;5095168;28;20210;-75
2020/12/15 06:04:15;;;;;;;7.60;5.25;;;10.20;99.90;;;;;;5094760;28;20201;-75
2020/12/15 06:06:42;;;;;;;6.80;5.05;;;10.20;99.90;;;;;;5095102;28;20194;-74
2020/12/15 06:09:11;;;;;;;6.90;4.93;;;10.20;99.90;;;;;;5094715;28;20293;-75
2020/12/15 06:11:40;;;;;;;6.13;4.72;;;10.10;99.90;;;;;;5094744;28;20204;-75
2020/12/15 06:14:07;;;;;;;7.47;4.90;;;10.10;99.90;;;;;;5094820;28;20201;-75
2020/12/15 06:16:33;;;;;;;8.73;5.10;;;10.20;99.90;;;;;;5095051;28;20209;-75
2020/12/15 06:19:01;;;;;;;5.10;4.60;;;10.20;99.90;;;;;;5094859;28;20236;-74
2020/12/15 06:21:29;;;;;;;5.72;4.25;;;10.10;99.90;;;;;;5094562;28;20195;-75
2020/12/15 06:24:03;;;;;;;6.43;4.93;;;10.10;99.90;;;;;;5094824;28;20542;-75
2020/12/15 06:26:31;;;;;;;6.03;4.72;;;10.10;99.90;;;;;;5094436;28;20192;-75
2020/12/15 06:28:59;;;;;;;6.78;4.80;;;10.10;99.90;;;;;;5094704;28;20221;-74
2020/12/15 06:31:25;;;;;;;5.20;4.53;;;10.10;99.90;;;;;;5094622;28;20280;-75
2020/12/15 06:33:55;;;;;;;8.75;6.43;;;10.10;99.90;;;;;;5094420;28;20554;-75
2020/12/15 06:36:34;;;;;;;10.75;5.80;;;10.10;99.90;;;;;;5093579;28;20194;-75
2020/12/15 06:39:01;;;;;;;5.55;4.50;;;10.10;99.90;;;;;;5094284;28;20190;-75
2020/12/15 06:41:28;;;;;;;6.63;5.13;;;10.10;99.90;;;;;;5094394;28;20281;-75
2020/12/15 06:44:05;;;;;;;6.43;5.05;;;10.10;99.90;;;;;;5094323;28;20228;-75
2020/12/15 06:46:32;;;;;;;7.80;5.20;;;10.00;99.90;;;;;;5094474;28;20194;-75
2020/12/15 06:48:58;;;;;;;7.00;4.20;;;10.00;99.90;;;;;;5093705;28;20994;-75
2020/12/15 06:51:34;;;;;;;15.57;10.52;;;10.00;99.90;;;;;;5094000;28;20202;-75
2020/12/15 06:54:02;;;;;;;10.15;6.78;;;10.10;99.90;;;;;;5093916;28;20247;-75
2020/12/15 06:56:29;;;;;;;6.38;4.18;;;10.00;99.90;;;;;;5093925;28;20206;-76
2020/12/15 06:59:00;;;;;;;4.95;4.00;;;9.90;99.90;;;;;;5093566;28;20672;-74
2020/12/15 07:01:27;;;;;;;5.32;3.95;;;10.00;99.90;;;;;;5094122;28;20280;-74
2020/12/15 07:03:55;;;;;;;5.53;4.32;;;10.00;99.90;;;;;;5093401;28;20248;-75
2020/12/15 07:06:22;;;;;;;5.68;3.90;;;10.00;99.90;;;;;;5086938;28;20668;-75
2020/12/15 07:08:59;;;;;;;4.75;3.65;;;10.00;99.90;;;;;;5086758;28;20206;-75
2020/12/15 07:11:25;;;;;;;5.90;3.67;;;10.00;99.90;;;;;;5079906;28;20194;-75
2020/12/15 07:13:56;;;;;;;4.47;2.97;;;10.00;99.90;;;;;;5093889;28;20270;-75
2020/12/15 07:16:23;;;;;;;5.30;4.43;;;10.10;99.90;;;;;;5093722;28;20200;-75
2020/12/15 07:18:51;;;;;;;4.15;3.53;;;10.10;99.90;;;;;;5093647;28;20202;-75
2020/12/15 07:21:18;;;;;;;5.97;4.13;;;10.00;99.90;;;;;;5093340;28;20241;-75
2020/12/15 07:23:46;;;;;;;7.03;4.85;;;10.10;99.90;;;;;;5093636;28;20284;-75
2020/12/15 07:26:14;;;;;;;5.10;3.78;;;10.10;99.90;;;;;;5093514;28;20202;-77
2020/12/15 07:28:42;;;;;;;8.73;4.15;;;10.10;99.90;;;;;;5093362;28;20198;-75
2020/12/15 07:31:09;;;;;;;4.82;4.32;;;10.10;99.90;;;;;;5093423;28;20209;-75
2020/12/15 07:33:35;;;;;;;5.00;4.28;;;10.10;99.90;;;;;;5093174;28;20602;-75
2020/12/15 07:36:11;;;;;;;5.20;4.05;;;10.20;99.90;;;;;;5093273;28;20285;-76
2020/12/15 07:38:39;;;;;;;6.25;4.13;;;10.10;99.90;;;;;;5092860;28;20289;-75
2020/12/15 07:41:13;;;;;;;4.70;3.78;;;10.10;99.90;;;;;;5093365;28;20272;-76
2020/12/15 07:43:40;;;;;;;4.70;3.90;;;10.10;99.90;;;;;;5092944;28;20634;-75
2020/12/15 07:46:16;;;;;;;8.27;4.47;;;10.10;99.90;;;;;;5084989;28;20214;-75
2020/12/15 07:48:43;;;;;;;5.05;4.10;;;10.10;99.90;;;;;;5088089;28;20641;-75
2020/12/15 07:51:10;;;;;;;5.35;3.55;;;10.20;99.90;;;;;;5092942;28;20649;-75
2020/12/15 07:53:36;;;;;;;4.72;3.90;;;10.20;99.90;;;;;;5093178;28;20296;-76
2020/12/15 07:56:04;;;;;;;6.70;4.25;;;10.20;99.90;;;;;;5093029;28;20376;-75
2020/12/15 07:58:32;;;;;;;7.30;4.88;;;10.20;99.90;;;;;;5092677;28;20208;-75
2020/12/15 08:00:58;;;;;;;6.30;4.20;;;10.20;99.90;;;;;;5092627;28;20224;-75
2020/12/15 08:03:24;;;;;;;4.55;4.00;;;10.30;99.90;;;;;;5092740;28;20201;-76
2020/12/15 08:05:51;;;;;;;6.40;3.67;;;10.30;99.90;;;;;;5092936;28;20285;-75
2020/12/15 08:08:18;;;;;;;4.43;4.03;;;10.30;99.90;;;;;;5093005;28;20301;-75
2020/12/15 08:10:45;;;;;;;7.18;3.97;;;10.30;99.90;;;;;;5092790;28;20326;-74
2020/12/15 08:13:11;;;;;;;4.10;3.70;;;10.30;99.90;;;;;;5092539;28;20297;-75
2020/12/15 08:15:40;;;;;;;5.53;4.15;;;10.30;99.90;;;;;;5092850;28;20198;-75
2020/12/15 08:18:08;;;;;;;4.93;3.80;;;10.30;99.90;;;;;;5092667;28;20198;-75
2020/12/15 08:20:36;;;;;;;6.43;4.18;;;10.40;99.90;;;;;;5092904;28;20218;-75
2020/12/15 08:23:07;;;;;;;6.22;4.45;;;10.40;99.90;;;;;;5092597;28;20258;-75
2020/12/15 08:25:35;;;;;;;5.93;4.50;;;10.40;99.90;;;;;;5092942;28;20252;-74
2020/12/15 08:28:12;;;;;;;6.82;4.68;;;10.40;99.90;;;;;;5092642;28;20266;-76
2020/12/15 08:30:40;;;;;;;5.10;4.10;;;10.40;99.90;;;;;;5092668;28;20198;-74
2020/12/15 08:33:06;;;;;;;5.38;4.68;;;10.40;99.90;;;;;;5092393;28;20214;-75
2020/12/15 08:35:33;;;;;;;5.90;4.60;;;10.40;99.90;;;;;;5092570;28;20297;-77
2020/12/15 08:38:01;;;;;;;8.68;5.32;;;10.40;99.90;;;;;;5092707;28;20209;-74
2020/12/15 08:40:29;;;;;;;10.82;5.53;;;10.40;99.90;;;;;;5092036;28;20226;-76
2020/12/15 08:42:58;;;;;;;13.40;5.72;;;10.40;99.90;;;;;;5092097;28;20216;-75
2020/12/15 08:45:26;;;;;;;14.40;6.47;;;10.40;99.90;;;;;;5092105;28;20623;-76
2020/12/15 08:47:55;;;;;;;9.65;6.10;;;10.50;99.90;;;;;;5092695;28;20240;-76
2020/12/15 08:50:25;;;;;;;7.28;5.80;;;10.50;99.90;;;;;;5092313;28;20210;-76
2020/12/15 08:52:51;;;;;;;7.20;5.72;;;10.50;99.90;;;;;;5092793;28;20191;-76
2020/12/15 08:55:26;;;;;;;10.90;6.68;;;10.40;99.90;;;;;;5092368;28;20202;-76
2020/12/15 08:57:57;;;;;;;8.50;6.55;;;10.50;99.90;;;;;;5079539;28;20197;-76
2020/12/15 09:00:24;;;;;;;9.38;6.50;;;10.50;99.90;;;;;;5094456;28;20232;-75
2020/12/15 09:02:50;;;;;;;10.07;7.10;;;10.60;99.90;;;;;;5094840;28;20637;-76
2020/12/15 09:05:17;;;;;;;10.25;7.50;;;10.60;99.90;;;;;;5095997;28;20202;-76
2020/12/15 09:07:44;;;;;;;12.93;7.78;;;10.50;99.90;;;;;;5096229;28;20285;-75
2020/12/15 09:10:14;;;;;;;11.32;7.88;;;10.60;99.90;;;;;;5095653;28;20195;-75
2020/12/15 09:12:45;;;;;;;11.95;8.75;;;10.60;99.90;;;;;;5095736;28;20258;-75
2020/12/15 09:15:12;;;;;;;9.18;7.38;;;10.60;99.90;;;;;;5080996;28;21568;-75
2020/12/15 09:17:39;;;;;;;12.65;7.15;;;10.60;99.90;;;;;;5079947;28;20206;-76
2020/12/15 09:20:08;;;;;;;10.13;7.68;;;10.60;99.90;;;;;;5082965;28;20250;-77
2020/12/15 09:22:37;;;;;;;11.77;8.05;;;10.60;99.90;;;;;;5087144;28;20202;-77
2020/12/15 09:25:12;;;;;;;13.68;9.55;;;10.60;99.90;;;;;;5093774;28;20226;-76
2020/12/15 09:27:38;;;;;;;12.13;7.95;;;10.60;99.90;;;;;;5088525;28;20280;-76
2020/12/15 09:30:05;;;;;;;12.90;9.45;;;10.60;99.90;;;;;;5080924;28;20286;-76
2020/12/15 09:32:32;;;;;;;14.32;9.30;;;10.60;99.90;;;;;;5093632;28;20210;-76
2020/12/15 09:34:58;;;;;;;12.80;9.25;;;10.50;99.90;;;;;;5094639;28;20755;-77
2020/12/15 09:37:25;;;;;;;14.38;9.55;;;10.60;99.90;;;;;;5095608;28;20198;-76
2020/12/15 09:39:52;;;;;;;17.48;10.85;;;10.70;99.90;;;;;;5095733;28;20252;-77
2020/12/15 09:42:20;;;;;;;14.52;9.68;;;10.60;99.90;;;;;;5095146;28;20205;-77
2020/12/15 09:44:46;;;;;;;17.17;10.50;;;10.60;99.90;;;;;;5095278;28;20204;-78
2020/12/15 09:47:12;;;;;;;13.15;10.88;;;10.60;99.90;;;;;;5091933;28;20207;-78
2020/12/15 09:49:39;;;;;;;11.50;10.15;;;10.60;99.90;;;;;;5084281;28;20204;-78
2020/12/15 09:52:05;;;;;;;13.98;11.10;;;10.60;99.90;;;;;;5095042;28;20288;-78
2020/12/15 09:54:32;;;;;;;18.73;12.38;;;10.60;99.90;;;;;;5095440;28;20220;-77
2020/12/15 09:56:59;;;;;;;16.35;12.00;;;10.60;99.90;;;;;;5095196;28;20202;-78
2020/12/15 09:59:26;;;;;;;13.85;11.65;;;10.60;99.90;;;;;;5095095;28;20202;-77
2020/12/15 10:01:53;;;;;;;15.05;11.95;;;10.70;99.90;;;;;;5095269;28;20283;-77
2020/12/15 10:04:19;;;;;;;16.42;11.30;;;10.70;99.90;;;;;;5094942;28;20270;-77
2020/12/15 10:06:48;;;;;;;16.67;12.43;;;10.60;99.90;;;;;;5095153;28;20225;-77
2020/12/15 10:09:15;;;;;;;18.23;12.23;;;10.60;99.90;;;;;;5095108;28;20205;-77
2020/12/15 10:11:42;;;;;;;20.33;12.95;;;10.70;99.90;;;;;;5094686;28;20294;-77
2020/12/15 10:14:09;;;;;;;14.02;11.85;;;10.60;99.90;;;;;;5094963;28;20255;-77
2020/12/15 10:16:36;;;;;;;16.83;13.02;;;10.70;99.90;;;;;;5094891;28;20653;-77
2020/12/15 10:19:02;;;;;;;15.35;12.30;;;10.60;99.90;;;;;;5081929;28;20207;-76
2020/12/15 10:21:29;;;;;;;16.58;12.60;;;10.50;99.90;;;;;;5094063;28;20547;-77
2020/12/15 10:23:55;;;;;;;19.17;12.70;;;10.60;99.90;;;;;;5095135;28;20202;-77
2020/12/15 10:26:23;;;;;;;15.18;12.15;;;10.60;99.90;;;;;;5094209;28;20194;-78
2020/12/15 10:28:50;;;;;;;18.65;13.70;;;10.60;99.90;;;;;;5094515;28;20543;-78
2020/12/15 10:31:17;;;;;;;17.85;13.40;;;10.60;99.90;;;;;;5094704;28;20204;-77
2020/12/15 10:33:43;;;;;;;18.60;13.93;;;10.60;99.90;;;;;;5094585;28;20205;-77
2020/12/15 10:36:12;;;;;;;20.70;14.20;;;10.60;99.90;;;;;;5094839;28;20217;-77
2020/12/15 10:38:39;;;;;;;18.70;14.38;;;10.50;99.90;;;;;;5094400;28;20206;-77
2020/12/15 10:41:05;;;;;;;19.50;14.70;;;10.60;99.90;;;;;;5094249;28;20222;-77
2020/12/15 10:43:32;;;;;;;19.13;14.32;;;10.60;99.90;;;;;;5094169;28;20206;-79
2020/12/15 10:45:58;;;;;;;16.67;13.93;;;10.60;99.90;;;;;;5094707;28;20328;-77
2020/12/15 10:48:25;;;;;;;19.95;15.45;;;10.60;99.90;;;;;;5094466;28;20202;-77
2020/12/15 10:50:52;;;;;;;18.30;15.32;;;10.60;99.90;;;;;;5094022;28;20705;-77
2020/12/15 10:53:18;;;;;;;23.38;15.73;;;10.50;99.90;;;;;;5094092;28;20198;-77
2020/12/15 10:55:48;;;;;;;21.25;14.85;;;10.50;99.90;;;;;;5094268;28;20259;-77
2020/12/15 10:58:14;;;;;;;17.83;14.57;;;10.40;99.90;;;;;;5094338;28;20206;-77
2020/12/15 11:00:40;;;;;;;20.05;15.23;;;10.50;99.90;;;;;;5093893;28;20228;-78
2020/12/15 11:03:07;;;;;;;18.67;15.13;;;10.60;99.90;;;;;;5094284;28;20198;-77
2020/12/15 11:05:35;;;;;;;18.90;15.73;;;10.70;99.90;;;;;;5094014;28;20564;-79
2020/12/15 11:08:01;;;;;;;18.40;14.93;;;10.60;99.90;;;;;;5093961;28;20190;-77
2020/12/15 11:10:28;;;;;;;19.40;14.95;;;10.60;99.90;;;;;;5094211;28;20229;-77
2020/12/15 11:12:54;;;;;;;16.63;14.90;;;10.70;99.90;;;;;;5079181;28;20620;-78
2020/12/15 11:15:20;;;;;;;18.30;14.48;;;10.60;99.90;;;;;;5078001;28;20206;-77
2020/12/15 11:17:47;;;;;;;15.70;14.05;;;10.60;99.90;;;;;;5080103;28;20211;-77
2020/12/15 11:20:13;;;;;;;18.80;14.75;;;10.70;99.90;;;;;;5078760;28;20229;-77
2020/12/15 11:22:40;;;;;;;17.67;14.43;;;10.70;99.90;;;;;;5079180;28;20205;-77
2020/12/15 11:25:07;;;;;;;17.00;14.60;;;10.70;99.90;;;;;;5080685;28;20198;-80
2020/12/15 11:27:33;;;;;;;17.40;14.27;;;10.70;99.90;;;;;;5078598;28;20207;-77
2020/12/15 11:30:00;;;;;;;16.50;14.75;;;10.80;99.90;;;;;;5079224;28;20207;-78
2020/12/15 11:32:26;;;;;;;16.77;14.40;;;10.80;99.90;;;;;;5078419;28;20210;-78
2020/12/15 11:34:52;;;;;;;15.20;13.63;;;10.80;99.90;;;;;;5078382;28;20211;-78
2020/12/15 11:37:19;;;;;;;17.38;14.70;;;10.80;99.90;;;;;;5076918;28;20203;-76
2020/12/15 11:39:46;;;;;;;16.65;13.90;;;10.80;99.90;;;;;;5077689;28;20233;-77
2020/12/15 11:42:14;;;;;;;16.88;14.38;;;10.90;99.90;;;;;;5078312;28;20259;-76
2020/12/15 11:44:40;;;;;;;15.80;14.18;;;10.80;99.90;;;;;;5077684;28;20213;-75
2020/12/15 11:47:07;;;;;;;16.73;14.00;;;10.80;99.90;;;;;;5077941;28;20205;-79
2020/12/15 11:49:33;;;;;;;17.63;15.18;;;10.80;99.90;;;;;;5078077;28;20221;-77
2020/12/15 11:51:59;;;;;;;16.58;13.88;;;10.80;99.90;;;;;;5078297;28;20205;-77
2020/12/15 11:54:27;;;;;;;15.43;13.77;;;10.90;99.90;;;;;;5078831;28;20203;-77
2020/12/15 11:56:55;;;;;;;16.73;14.40;;;10.80;99.90;;;;;;5077485;28;20228;-77
2020/12/15 11:59:22;;;;;;;16.88;15.00;;;10.90;99.90;;;;;;5078717;28;20228;-78
2020/12/15 12:01:48;;;;;;;15.75;14.05;;;10.90;99.90;;;;;;5078069;28;21453;-77
2020/12/15 12:04:14;;;;;;;16.63;14.82;;;10.80;99.90;;;;;;5077896;28;20209;-76
2020/12/15 12:06:41;;;;;;;16.52;14.77;;;10.90;99.90;;;;;;5077255;28;20206;-76
2020/12/15 12:09:07;;;;;;;15.70;14.05;;;10.90;99.90;;;;;;5076593;28;20674;-78
2020/12/15 12:11:33;;;;;;;16.58;14.30;;;11.00;99.90;;;;;;5078528;28;20203;-77
2020/12/15 12:14:01;;;;;;;19.70;14.65;;;11.00;99.90;;;;;;5078870;28;20209;-77
2020/12/15 12:16:27;;;;;;;16.60;14.57;;;11.00;99.90;;;;;;5077310;28;20301;-76
2020/12/15 12:18:54;;;;;;;19.00;14.63;;;11.00;99.90;;;;;;5077796;28;20217;-76
2020/12/15 12:21:20;;;;;;;17.42;15.23;;;11.00;99.90;;;;;;5078471;28;20240;-76
2020/12/15 12:23:46;;;;;;;16.00;14.32;;;11.00;99.90;;;;;;5077952;28;21374;-76
2020/12/15 12:26:15;;;;;;;15.90;14.27;;;11.10;99.90;;;;;;5077411;28;20289;-76
2020/12/15 12:28:42;;;;;;;17.38;15.00;;;11.00;99.90;;;;;;5077529;28;20198;-76
2020/12/15 12:31:12;;;;;;;16.58;14.60;;;11.00;99.90;;;;;;5077599;28;20210;-78
2020/12/15 12:33:38;;;;;;;17.85;15.02;;;11.00;99.90;;;;;;5077746;28;20219;-78
2020/12/15 12:36:05;;;;;;;18.15;15.30;;;11.10;99.90;;;;;;5082217;28;20641;-77
2020/12/15 12:38:31;;;;;;;15.93;13.93;;;11.00;99.90;;;;;;5081866;28;20727;-76
2020/12/15 12:40:57;;;;;;;17.10;15.30;;;11.10;99.90;;;;;;5082727;28;20232;-77